Time;durP1;ratioP1;P1;durP2;ratioP2;P2;SDS_P1;SDS_P2;PMS_P1;PMS_P2;Temp;Humidity;BMP_temperature;BMP_pressure;BME280_temperature;BME280_humidity;BME280_pressure;Samples;Min_cycle;Max_cycle;Signal;HPM_P1;HPM_P2
2023/12/04 00:01:28;;;;;;;29.33;18.73;;;;;;;-0.75;100.00;101115.03;5327757;28;20020;-77
2023/12/04 00:04:01;;;;;;;29.65;18.50;;;;;;;-0.75;100.00;101115.03;5327980;28;20028;-77
2023/12/04 00:06:32;;;;;;;30.48;18.42;;;;;;;-0.73;100.00;101110.84;5327678;28;20042;-77
2023/12/04 00:09:03;;;;;;;26.97;18.30;;;;;;;-0.69;100.00;101110.97;5328060;28;20504;-77
2023/12/04 00:11:35;;;;;;;28.20;17.43;;;;;;;-0.68;100.00;101105.03;5327874;28;20046;-75
2023/12/04 00:14:06;;;;;;;25.83;17.97;;;;;;;-0.67;100.00;101101.69;5327671;28;20031;-76
2023/12/04 00:16:38;;;;;;;25.33;17.60;;;;;;;-0.67;100.00;101105.09;5327720;28;20489;-76
2023/12/04 00:19:09;;;;;;;28.10;17.73;;;;;;;-0.66;100.00;101095.72;5308908;28;20063;-76
2023/12/04 00:21:40;;;;;;;28.67;17.03;;;;;;;-0.67;100.00;101097.41;5328194;28;20343;-77
2023/12/04 00:24:12;;;;;;;25.60;16.47;;;;;;;-0.66;100.00;101100.84;5309238;28;20434;-76
2023/12/04 00:26:43;;;;;;;26.07;17.10;;;;;;;-0.68;100.00;101094.81;5327619;28;20031;-76
2023/12/04 00:29:15;;;;;;;29.47;17.37;;;;;;;-0.71;100.00;101087.00;5327365;28;20031;-76
2023/12/04 00:31:46;;;;;;;28.73;18.60;;;;;;;-0.71;100.00;101076.75;5326991;28;20039;-77
2023/12/04 00:34:17;;;;;;;23.97;16.23;;;;;;;-0.75;100.00;101066.41;5327363;28;20024;-77
2023/12/04 00:36:49;;;;;;;27.67;17.60;;;;;;;-0.75;100.00;101081.75;5327256;28;20052;-78
2023/12/04 00:39:20;;;;;;;34.13;17.80;;;;;;;-0.78;100.00;101079.09;5327692;28;20137;-77
2023/12/04 00:41:51;;;;;;;24.53;16.90;;;;;;;-0.77;100.00;101082.53;5327272;28;20143;-77
2023/12/04 00:44:23;;;;;;;26.73;16.80;;;;;;;-0.79;100.00;101074.81;5327266;28;20035;-76
2023/12/04 00:46:54;;;;;;;27.80;17.10;;;;;;;-0.80;100.00;101062.81;5327086;28;20032;-76
2023/12/04 00:49:25;;;;;;;25.03;16.50;;;;;;;-0.83;100.00;101061.81;5326917;28;20052;-78
2023/12/04 00:51:57;;;;;;;27.17;17.37;;;;;;;-0.80;100.00;101056.81;5326825;28;20404;-76
2023/12/04 00:54:28;;;;;;;23.00;15.90;;;;;;;-0.77;100.00;101062.06;5326749;28;20024;-77
2023/12/04 00:56:59;;;;;;;29.87;19.13;;;;;;;-0.79;100.00;101056.00;5326788;28;20023;-77
2023/12/04 00:59:31;;;;;;;27.27;17.07;;;;;;;-0.78;100.00;101057.75;5326815;28;20024;-77
2023/12/04 01:02:02;;;;;;;21.20;15.13;;;;;;;-0.77;100.00;101054.38;5326560;28;20186;-77
2023/12/04 01:04:34;;;;;;;24.53;16.53;;;;;;;-0.76;100.00;101044.19;5326789;28;20093;-76
2023/12/04 01:07:05;;;;;;;24.60;16.17;;;;;;;-0.77;100.00;101051.81;5326688;28;20027;-77
2023/12/04 01:09:37;;;;;;;25.13;16.10;;;;;;;-0.80;100.00;101042.31;5327163;28;20040;-77
2023/12/04 01:12:08;;;;;;;23.77;15.47;;;;;;;-0.81;100.00;101040.56;5327216;28;20036;-77
2023/12/04 01:14:39;;;;;;;22.80;15.40;;;;;;;-0.80;100.00;101042.31;5327273;28;20588;-76
2023/12/04 01:17:11;;;;;;;24.77;16.23;;;;;;;-0.79;100.00;101030.38;5326872;28;20172;-78
2023/12/04 01:19:42;;;;;;;23.30;15.50;;;;;;;-0.75;100.00;101040.81;5327072;28;20518;-78
2023/12/04 01:22:13;;;;;;;24.17;15.87;;;;;;;-0.75;100.00;101037.38;5326901;28;20036;-77
2023/12/04 01:24:45;;;;;;;23.93;15.50;;;;;;;-0.73;100.00;101030.63;5308677;28;20036;-78
2023/12/04 01:27:16;;;;;;;26.23;16.73;;;;;;;-0.71;100.00;101023.00;5326954;28;20332;-78
2023/12/04 01:29:47;;;;;;;24.27;15.27;;;;;;;-0.70;100.00;101019.63;5326560;28;20032;-77
2023/12/04 01:32:19;;;;;;;25.50;15.33;;;;;;;-0.68;100.00;101025.69;5326391;28;20102;-78
2023/12/04 01:34:50;;;;;;;23.33;15.53;;;;;;;-0.67;100.00;101022.31;5325318;28;20055;-78
2023/12/04 01:37:21;;;;;;;22.30;15.27;;;;;;;-0.66;100.00;101022.38;5326153;28;20471;-78
2023/12/04 01:39:53;;;;;;;22.37;14.93;;;;;;;-0.65;100.00;101018.97;5325990;28;20426;-77
2023/12/04 01:42:24;;;;;;;21.77;14.40;;;;;;;-0.64;100.00;101025.84;5325972;28;20111;-77
2023/12/04 01:44:55;;;;;;;23.67;15.43;;;;;;;-0.62;100.00;101018.22;5325552;28;20425;-77
2023/12/04 01:47:27;;;;;;;22.97;15.97;;;;;;;-0.62;100.00;101008.84;5325828;28;20133;-77
2023/12/04 01:49:58;;;;;;;21.43;14.17;;;;;;;-0.63;100.00;101019.94;5325374;28;20064;-77
2023/12/04 01:52:30;;;;;;;20.10;13.40;;;;;;;-0.63;100.00;101001.09;5325914;28;20031;-77
2023/12/04 01:55:02;;;;;;;24.10;14.13;;;;;;;-0.63;100.00;101003.66;5326166;28;20027;-77
2023/12/04 01:57:34;;;;;;;18.30;13.80;;;;;;;-0.62;100.00;101002.88;5326278;28;20137;-77
2023/12/04 02:00:11;;;;;;;19.97;13.77;;;;;;;-0.64;100.00;100990.00;5325491;28;20110;-78
2023/12/04 02:02:42;;;;;;;23.67;14.32;;;;;;;-0.59;100.00;100987.63;5325586;28;20043;-77
2023/12/04 02:05:14;;;;;;;23.40;13.47;;;;;;;-0.60;100.00;100988.41;5325149;28;20382;-78
2023/12/04 02:07:46;;;;;;;21.33;15.10;;;;;;;-0.63;100.00;100981.53;5307169;28;20467;-77
2023/12/04 02:10:17;;;;;;;22.70;14.57;;;;;;;-0.63;100.00;100980.63;5325163;28;20020;-77
2023/12/04 02:12:50;;;;;;;22.17;13.97;;;;;;;-0.63;100.00;100981.53;5307248;28;20050;-77
2023/12/04 02:15:21;;;;;;;22.38;14.07;;;;;;;-0.63;100.00;100978.97;5325347;28;20042;-78
2023/12/04 02:17:53;;;;;;;19.43;12.97;;;;;;;-0.64;100.00;100973.78;5325230;28;20111;-77
2023/12/04 02:20:34;;;;;;;22.40;14.50;;;;;;;-0.63;100.00;100970.38;5325155;28;20489;-77
2023/12/04 02:23:05;;;;;;;20.95;12.98;;;;;;;-0.66;100.00;100965.16;5325357;28;20032;-77
2023/12/04 02:25:37;;;;;;;18.90;13.17;;;;;;;-0.62;100.00;100969.59;5325357;28;20111;-78
2023/12/04 02:28:13;;;;;;;24.67;13.47;;;;;;;-0.63;100.00;100963.59;5325304;28;20157;-78
2023/12/04 02:30:46;;;;;;;21.15;13.70;;;;;;;-0.63;100.00;100963.59;5325348;28;20447;-78
2023/12/04 02:33:23;;;;;;;18.52;12.23;;;;;;;-0.63;100.00;100963.59;5324881;28;20127;-78
2023/12/04 02:35:57;;;;;;;20.17;13.23;;;;;;;-0.62;100.00;100955.09;5324742;28;20047;-78
2023/12/04 02:38:29;;;;;;;21.13;11.70;;;;;;;-0.63;100.00;100955.03;5324275;28;20371;-78
2023/12/04 02:41:01;;;;;;;21.42;13.00;;;;;;;-0.61;100.00;100950.81;5324359;28;20024;-78
2023/12/04 02:43:33;;;;;;;20.50;13.23;;;;;;;-0.62;100.00;100951.66;5324816;28;20062;-78
2023/12/04 02:46:05;;;;;;;18.65;13.38;;;;;;;-0.61;100.00;100945.69;5326307;28;20046;-79
2023/12/04 02:48:36;;;;;;;17.00;12.80;;;;;;;-0.65;100.00;100937.06;5332480;28;20032;-79
2023/12/04 02:51:07;;;;;;;18.37;12.17;;;;;;;-0.66;100.00;100934.44;5331907;28;20104;-79
2023/12/04 02:53:39;;;;;;;17.20;11.30;;;;;;;-0.64;100.00;100932.81;5332436;28;20035;-79
2023/12/04 02:56:10;;;;;;;17.70;12.00;;;;;;;-0.63;100.00;100929.41;5332174;28;20035;-78
2023/12/04 02:58:42;;;;;;;16.83;12.33;;;;;;;-0.65;100.00;100924.25;5331951;28;20039;-79
2023/12/04 03:01:13;;;;;;;17.50;12.40;;;;;;;-0.65;100.00;100920.81;5332494;28;20031;-78
2023/12/04 03:03:44;;;;;;;17.83;11.90;;;;;;;-0.65;100.00;100919.13;5332062;28;20110;-78
2023/12/04 03:06:16;;;;;;;17.70;12.43;;;;;;;-0.66;100.00;100916.50;5331469;28;20068;-78
2023/12/04 03:08:47;;;;;;;15.83;11.00;;;;;;;-0.64;100.00;100922.59;5331331;28;20024;-79
2023/12/04 03:11:19;;;;;;;20.33;13.00;;;;;;;-0.66;100.00;100913.94;5331446;28;20124;-78
2023/12/04 03:13:50;;;;;;;17.37;11.70;;;;;;;-0.66;100.00;100912.28;5331965;28;20071;-77
2023/12/04 03:16:22;;;;;;;18.17;11.93;;;;;;;-0.64;100.00;100908.06;5331508;28;20051;-78
2023/12/04 03:18:53;;;;;;;16.60;11.87;;;;;;;-0.66;100.00;100896.94;5331482;28;20034;-78
2023/12/04 03:21:24;;;;;;;20.77;12.60;;;;;;;-0.61;100.00;100892.81;5331855;28;20027;-78
2023/12/04 03:23:56;;;;;;;19.37;12.37;;;;;;;-0.60;100.00;100894.56;5331468;28;20032;-79
2023/12/04 03:26:28;;;;;;;15.97;11.00;;;;;;;-0.59;100.00;100882.63;5331718;28;20051;-79
2023/12/04 03:28:59;;;;;;;17.30;11.95;;;;;;;-0.60;100.00;100881.75;5331657;28;20509;-79
2023/12/04 03:31:31;;;;;;;17.30;11.70;;;;;;;-0.58;100.00;100877.56;5332256;28;20032;-79
2023/12/04 03:34:02;;;;;;;15.13;11.50;;;;;;;-0.61;100.00;100869.78;5331540;28;20097;-79
2023/12/04 03:36:34;;;;;;;15.47;10.97;;;;;;;-0.57;100.00;100871.59;5331583;28;20036;-79
2023/12/04 03:39:05;;;;;;;17.93;11.33;;;;;;;-0.58;100.00;100866.44;5332311;28;20108;-79
2023/12/04 03:41:36;;;;;;;14.67;10.77;;;;;;;-0.56;100.00;100852.88;5313955;28;20035;-80
2023/12/04 03:44:08;;;;;;;16.87;11.40;;;;;;;-0.57;100.00;100850.25;5331546;28;20103;-79
2023/12/04 03:46:39;;;;;;;17.43;11.63;;;;;;;-0.52;100.00;100850.44;5331600;28;20045;-79
2023/12/04 03:49:11;;;;;;;15.97;11.07;;;;;;;-0.52;100.00;100856.41;5331275;28;20036;-79
2023/12/04 03:51:42;;;;;;;15.33;10.07;;;;;;;-0.56;100.00;100840.06;5331465;28;20382;-79
2023/12/04 03:54:13;;;;;;;13.90;10.80;;;;;;;-0.56;100.00;100846.91;5331558;28;20023;-80
2023/12/04 03:56:45;;;;;;;18.27;11.70;;;;;;;-0.58;100.00;100840.84;5331626;28;20032;-80
2023/12/04 03:59:16;;;;;;;14.97;10.73;;;;;;;-0.57;100.00;100846.00;5327963;28;20131;-80
2023/12/04 04:01:47;;;;;;;16.43;10.93;;;;;;;-0.57;100.00;100840.03;5328541;28;20482;-80
2023/12/04 04:04:19;;;;;;;15.50;10.90;;;;;;;-0.60;100.00;100837.34;5328190;28;20036;-80
2023/12/04 04:06:50;;;;;;;15.73;11.17;;;;;;;-0.61;100.00;100833.94;5328473;28;20028;-79
2023/12/04 04:09:22;;;;;;;15.63;11.33;;;;;;;-0.56;100.00;100823.84;5328160;28;20063;-81
2023/12/04 04:11:53;;;;;;;14.70;10.87;;;;;;;-0.62;100.00;100821.09;5328188;28;20050;-80
2023/12/04 04:14:24;;;;;;;15.17;10.37;;;;;;;-0.65;100.00;100816.72;5327686;28;20116;-81
2023/12/04 04:16:56;;;;;;;15.27;11.27;;;;;;;-0.63;100.00;100819.34;5327856;28;20470;-80
2023/12/04 04:19:27;;;;;;;16.13;10.70;;;;;;;-0.65;100.00;100814.16;5328027;28;20370;-79
2023/12/04 04:21:58;;;;;;;15.37;11.17;;;;;;;-0.65;100.00;100810.75;5327644;28;20054;-80
2023/12/04 04:24:30;;;;;;;16.33;10.97;;;;;;;-0.70;100.00;100810.59;5327675;28;20031;-80
2023/12/04 04:27:01;;;;;;;16.80;12.40;;;;;;;-0.70;100.00;100808.03;5327803;28;20399;-81
2023/12/04 04:29:33;;;;;;;19.00;13.00;;;;;;;-0.66;100.00;100803.88;5327906;28;20076;-80
2023/12/04 04:32:05;;;;;;;20.37;12.83;;;;;;;-0.69;100.00;100802.09;5327235;28;20038;-81
2023/12/04 04:34:36;;;;;;;18.55;11.52;;;;;;;-0.64;100.00;100799.69;5327604;28;20039;-81
2023/12/04 04:37:08;;;;;;;14.97;11.07;;;;;;;-0.64;100.00;100794.56;5327883;28;20065;-82
2023/12/04 04:39:40;;;;;;;14.33;10.33;;;;;;;-0.66;100.00;100785.94;5328284;28;20043;-82
2023/12/04 04:42:11;;;;;;;17.73;11.07;;;;;;;-0.63;100.00;100793.72;5309700;28;20024;-82
2023/12/04 04:44:43;;;;;;;19.07;11.60;;;;;;;-0.61;100.00;100789.53;5329493;28;20038;-81
2023/12/04 04:47:14;;;;;;;14.80;11.37;;;;;;;-0.61;100.00;100780.19;5328200;28;20039;-80
2023/12/04 04:49:45;;;;;;;15.00;10.83;;;;;;;-0.60;100.00;100796.41;5328529;28;20027;-81
2023/12/04 04:52:17;;;;;;;18.63;12.27;;;;;;;-0.61;100.00;100787.84;5330147;28;20127;-82
2023/12/04 04:54:48;;;;;;;16.93;12.27;;;;;;;-0.58;100.00;100789.63;5333034;28;20032;-82
2023/12/04 04:57:19;;;;;;;15.93;11.53;;;;;;;-0.60;100.00;100783.59;5331322;28;20495;-82
2023/12/04 04:59:51;;;;;;;17.37;12.43;;;;;;;-0.59;100.00;100787.91;5327766;28;20042;-81
2023/12/04 05:02:22;;;;;;;18.87;12.07;;;;;;;-0.62;100.00;100778.41;5332838;28;20056;-82
2023/12/04 05:04:53;;;;;;;14.33;10.87;;;;;;;-0.58;100.00;100789.63;5346804;28;20069;-81
2023/12/04 05:07:25;;;;;;;16.40;12.23;;;;;;;-0.56;100.00;100785.44;5350194;28;20027;-83
2023/12/04 05:09:56;;;;;;;16.07;11.27;;;;;;;-0.57;100.00;100787.13;5349779;28;20016;-82
2023/12/04 05:12:27;;;;;;;13.97;10.43;;;;;;;-0.57;100.00;100786.25;5348685;28;20039;-83
2023/12/04 05:14:59;;;;;;;15.70;11.57;;;;;;;-0.55;100.00;100779.47;5338864;28;20086;-82
2023/12/04 05:17:30;;;;;;;15.97;10.57;;;;;;;-0.54;100.00;100778.69;5333614;28;20088;-83
2023/12/04 05:20:01;;;;;;;16.83;11.70;;;;;;;-0.54;100.00;100770.13;5330778;28;20028;-82
2023/12/04 05:22:34;;;;;;;13.13;10.70;;;;;;;-0.57;100.00;100765.78;5330120;28;20034;-83
2023/12/04 05:25:06;;;;;;;;;;;;;;;-0.52;100.00;100763.38;5333266;28;20382;-83
2023/12/04 05:27:37;;;;;;;15.40;10.63;;;;;;;-0.54;100.00;100750.50;5333735;28;19969;-82
2023/12/04 05:30:09;;;;;;;15.27;10.57;;;;;;;-0.54;100.00;100753.06;5331507;28;20066;-82
2023/12/04 05:32:40;;;;;;;14.07;11.17;;;;;;;-0.53;100.00;100752.25;5327952;28;20106;-83
2023/12/04 05:35:11;;;;;;;16.50;11.67;;;;;;;-0.54;100.00;100737.72;5328218;28;20036;-82
2023/12/04 05:37:43;;;;;;;15.60;11.50;;;;;;;-0.52;100.00;100733.50;5328377;28;20052;-82
2023/12/04 05:40:14;;;;;;;15.40;11.63;;;;;;;-0.49;100.00;100735.28;5328944;28;20036;-83
2023/12/04 05:42:46;;;;;;;15.10;12.10;;;;;;;-0.56;100.00;100742.78;5328897;28;20034;-83
2023/12/04 05:45:17;;;;;;;15.17;11.00;;;;;;;-0.54;100.00;100742.84;5329176;28;20028;-83
2023/12/04 05:47:48;;;;;;;13.87;11.00;;;;;;;-0.54;100.00;100749.66;5328282;28;20032;-82
2023/12/04 05:50:20;;;;;;;16.63;12.37;;;;;;;-0.52;100.00;100753.13;5310963;28;20032;-83
2023/12/04 05:52:51;;;;;;;22.50;12.07;;;;;;;-0.54;100.00;100740.28;5329926;28;20230;-82
2023/12/04 05:55:22;;;;;;;16.23;11.40;;;;;;;-0.51;100.00;100749.75;5329704;28;20046;-84
2023/12/04 05:57:54;;;;;;;13.77;11.43;;;;;;;-0.51;100.00;100726.69;5329252;28;20059;-82
2023/12/04 06:00:25;;;;;;;15.83;13.20;;;;;;;-0.50;100.00;100718.19;5329034;28;20035;-83
2023/12/04 06:02:57;;;;;;;14.67;10.93;;;;;;;-0.50;100.00;100726.75;5329084;28;20405;-83
2023/12/04 06:05:28;;;;;;;13.23;10.53;;;;;;;-0.52;100.00;100715.56;5328916;28;20063;-83
2023/12/04 06:07:59;;;;;;;14.50;10.83;;;;;;;-0.50;100.00;100720.75;5328979;28;20096;-83
2023/12/04 06:10:31;;;;;;;16.57;11.47;;;;;;;-0.48;100.00;100727.66;5329083;28;20400;-83
2023/12/04 06:13:02;;;;;;;14.67;11.67;;;;;;;-0.51;100.00;100709.63;5310651;28;20042;-82
2023/12/04 06:15:34;;;;;;;14.30;11.13;;;;;;;-0.51;100.00;100701.97;5328394;28;20031;-84
2023/12/04 06:18:05;;;;;;;12.90;10.57;;;;;;;-0.50;100.00;100692.56;5311277;28;20065;-83
2023/12/04 06:20:36;;;;;;;12.83;9.93;;;;;;;-0.49;100.00;100687.50;5328727;28;20028;-83
2023/12/04 06:23:08;;;;;;;12.80;9.47;;;;;;;-0.52;100.00;100678.88;5328780;28;20119;-83
2023/12/04 06:25:40;;;;;;;12.50;9.67;;;;;;;-0.51;100.00;100684.03;5311071;28;20039;-83
2023/12/04 06:28:12;;;;;;;11.77;9.65;;;;;;;-0.52;100.00;100686.53;5310524;28;20471;-84
2023/12/04 06:30:44;;;;;;;10.77;8.35;;;;;;;-0.46;100.00;100677.34;5311600;28;20027;-84
2023/12/04 06:33:18;;;;;;;12.83;9.63;;;;;;;-0.54;100.00;100662.59;5330405;28;20068;-83
2023/12/04 06:35:49;;;;;;;12.20;9.73;;;;;;;-0.56;100.00;100654.88;5329254;28;20399;-83
2023/12/04 06:38:24;;;;;;;11.10;8.70;;;;;;;-0.52;100.00;100654.13;5329372;28;20055;-83
2023/12/04 06:40:56;;;;;;;13.18;8.75;;;;;;;-0.56;100.00;100653.16;5328338;28;20034;-83
2023/12/04 06:43:27;;;;;;;12.70;9.53;;;;;;;-0.50;100.00;100649.03;5328522;28;20031;-83
2023/12/04 06:45:59;;;;;;;10.97;8.33;;;;;;;-0.53;100.00;100637.03;5329567;28;20463;-82
2023/12/04 06:48:31;;;;;;;13.70;8.83;;;;;;;-0.55;100.00;100641.22;5330398;28;20081;-83
2023/12/04 06:51:02;;;;;;;9.87;7.80;;;;;;;-0.57;100.00;100641.16;5336754;28;20035;-84
2023/12/04 06:53:34;;;;;;;10.67;7.80;;;;;;;-0.58;100.00;100648.81;5338627;28;20043;-84
2023/12/04 06:56:06;;;;;;;10.30;7.97;;;;;;;-0.53;100.00;100656.63;5337421;28;20032;-82
2023/12/04 06:58:37;;;;;;;11.18;7.90;;;;;;;-0.58;100.00;100662.50;5335656;28;20028;-82
2023/12/04 07:01:08;;;;;;;10.37;8.03;;;;;;;-0.56;100.00;100657.44;5334128;28;20039;-84
2023/12/04 07:03:40;;;;;;;13.63;8.00;;;;;;;-0.52;100.00;100646.44;5314094;28;20028;-83
2023/12/04 07:06:11;;;;;;;11.00;7.57;;;;;;;-0.54;100.00;100647.22;5329063;28;20058;-84
2023/12/04 07:08:43;;;;;;;11.23;7.80;;;;;;;-0.54;100.00;100647.22;5328822;28;20027;-85
2023/12/04 07:11:15;;;;;;;12.18;8.00;;;;;;;-0.56;100.00;100639.50;5329868;28;20078;-84
2023/12/04 07:13:46;;;;;;;13.57;8.73;;;;;;;-0.56;100.00;100637.81;5328098;28;20039;-84
2023/12/04 07:16:18;;;;;;;10.83;6.97;;;;;;;-0.54;100.00;100632.72;5329219;28;20023;-82
2023/12/04 07:18:49;;;;;;;11.73;8.07;;;;;;;-0.56;100.00;100644.63;5309454;28;20063;-84
2023/12/04 07:21:20;;;;;;;9.60;7.53;;;;;;;-0.54;100.00;100649.78;5327872;28;20028;-84
2023/12/04 07:23:51;;;;;;;9.70;7.23;;;;;;;-0.53;100.00;100641.28;5329527;28;20035;-83
2023/12/04 07:26:23;;;;;;;10.27;7.50;;;;;;;-0.57;100.00;100641.16;5337032;28;20431;-84
2023/12/04 07:28:54;;;;;;;10.63;6.90;;;;;;;-0.56;100.00;100647.19;5343051;28;20061;-82
2023/12/04 07:31:26;;;;;;;10.13;7.33;;;;;;;-0.52;100.00;100638.75;5344251;28;20028;-84
2023/12/04 07:34:00;;;;;;;9.83;6.83;;;;;;;-0.54;100.00;100637.84;5331440;28;20023;-84
2023/12/04 07:36:31;;;;;;;11.00;7.75;;;;;;;-0.49;100.00;100643.09;5314593;28;20054;-83
2023/12/04 07:39:06;;;;;;;10.00;6.60;;;;;;;-0.50;100.00;100639.69;5331332;28;20459;-83
2023/12/04 07:41:37;;;;;;;8.60;6.55;;;;;;;-0.47;100.00;100655.13;5330689;28;20028;-81
2023/12/04 07:44:09;;;;;;;9.43;6.83;;;;;;;-0.41;100.00;100657.88;5312507;28;20118;-84
2023/12/04 07:46:40;;;;;;;11.47;6.80;;;;;;;-0.43;100.00;100646.72;5330415;28;20088;-82
2023/12/04 07:49:11;;;;;;;8.10;7.00;;;;;;;-0.42;100.00;100642.44;5329560;28;20036;-84
2023/12/04 07:51:43;;;;;;;10.63;6.87;;;;;;;-0.44;100.00;100641.56;5329603;28;20028;-84
2023/12/04 07:54:14;;;;;;;8.77;6.87;;;;;;;-0.44;100.00;100642.41;5314616;28;20035;-80
2023/12/04 07:56:45;;;;;;;8.50;7.03;;;;;;;-0.42;100.00;100645.91;5331225;28;20467;-83
2023/12/04 07:59:17;;;;;;;9.57;6.77;;;;;;;-0.42;100.00;100635.66;5330616;28;20076;-83
2023/12/04 08:01:48;;;;;;;9.13;6.37;;;;;;;-0.41;100.00;100626.28;5328693;28;20043;-83
2023/12/04 08:04:19;;;;;;;12.80;7.30;;;;;;;-0.39;100.00;100625.50;5330240;28;20032;-83
2023/12/04 08:06:51;;;;;;;8.40;6.67;;;;;;;-0.38;100.00;100623.81;5329236;28;20072;-83
2023/12/04 08:09:22;;;;;;;8.80;6.57;;;;;;;-0.37;100.00;100612.75;5330306;28;20538;-83
2023/12/04 08:11:53;;;;;;;9.40;6.77;;;;;;;-0.34;100.00;100615.38;5311766;28;20054;-83
2023/12/04 08:14:26;;;;;;;7.80;6.40;;;;;;;-0.30;100.00;100616.34;5329272;28;20518;-81
2023/12/04 08:16:57;;;;;;;10.10;7.57;;;;;;;-0.33;100.00;100616.25;5329115;28;20114;-81
2023/12/04 08:19:29;;;;;;;11.90;7.37;;;;;;;-0.30;100.00;100622.34;5329194;28;20114;-83
2023/12/04 08:22:00;;;;;;;10.00;6.80;;;;;;;-0.28;100.00;100622.38;5329594;28;20039;-83
2023/12/04 08:24:32;;;;;;;9.73;6.60;;;;;;;-0.28;99.63;100609.56;5329655;28;20036;-83
2023/12/04 08:27:03;;;;;;;11.20;6.53;;;;;;;-0.26;99.47;100605.34;5310709;28;20381;-83
2023/12/04 08:29:34;;;;;;;10.47;7.10;;;;;;;-0.28;100.00;100607.00;5329087;28;20510;-83
2023/12/04 08:32:06;;;;;;;10.57;7.93;;;;;;;-0.28;100.00;100599.31;5328392;28;20040;-83
2023/12/04 08:34:38;;;;;;;8.50;7.23;;;;;;;-0.23;99.33;100598.63;5329409;28;20028;-82
2023/12/04 08:37:09;;;;;;;8.83;6.30;;;;;;;-0.20;99.16;100592.72;5328167;28;20044;-83
2023/12/04 08:39:41;;;;;;;10.38;6.47;;;;;;;-0.20;98.75;100593.56;5328736;28;20420;-83
2023/12/04 08:42:13;;;;;;;9.90;6.87;;;;;;;-0.19;99.47;100589.34;5327877;28;20057;-83
2023/12/04 08:44:47;;;;;;;10.27;6.67;;;;;;;-0.17;99.05;100580.00;5327925;28;20042;-82
2023/12/04 08:47:18;;;;;;;10.13;6.30;;;;;;;-0.17;99.29;100574.88;5328550;28;20391;-83
2023/12/04 08:49:50;;;;;;;10.30;6.10;;;;;;;-0.15;100.00;100570.66;5328629;28;20035;-76
2023/12/04 08:52:21;;;;;;;10.60;6.97;;;;;;;-0.14;99.30;100564.72;5329676;28;20038;-83
2023/12/04 08:54:53;;;;;;;9.13;6.27;;;;;;;-0.10;98.50;100566.50;5329406;28;20451;-82
2023/12/04 08:57:25;;;;;;;10.13;7.07;;;;;;;-0.08;98.81;100559.75;5310459;28;20062;-83
2023/12/04 08:59:56;;;;;;;9.67;6.73;;;;;;;-0.07;98.34;100553.78;5329188;28;20067;-83
2023/12/04 09:02:27;;;;;;;7.93;6.57;;;;;;;-0.05;98.30;100557.28;5328649;28;20019;-83
2023/12/04 09:04:59;;;;;;;9.70;6.70;;;;;;;-0.03;98.14;100552.19;5334627;28;20028;-84
2023/12/04 09:07:30;;;;;;;9.07;6.60;;;;;;;-0.01;97.85;100559.09;5342505;28;20028;-78
2023/12/04 09:10:02;;;;;;;7.97;6.27;;;;;;;0.02;97.65;100557.41;5342839;28;20054;-83
2023/12/04 09:12:36;;;;;;;11.10;6.70;;;;;;;0.03;96.72;100564.28;5333669;28;20031;-84
2023/12/04 09:15:08;;;;;;;8.23;5.82;;;;;;;0.03;97.25;100549.78;5331589;28;20047;-84
2023/12/04 09:17:39;;;;;;;9.23;6.50;;;;;;;0.06;96.94;100561.81;5331385;28;20168;-83
2023/12/04 09:20:11;;;;;;;9.07;6.50;;;;;;;0.08;97.39;100549.91;5330571;28;20035;-83
2023/12/04 09:22:42;;;;;;;8.83;6.30;;;;;;;0.11;97.15;100558.56;5328371;28;20031;-83
2023/12/04 09:25:14;;;;;;;9.43;6.80;;;;;;;0.11;96.42;100547.41;5328357;28;20024;-84
2023/12/04 09:27:46;;;;;;;8.90;6.20;;;;;;;0.13;96.31;100541.50;5329087;28;20028;-83
2023/12/04 09:30:17;;;;;;;9.90;6.20;;;;;;;0.18;95.55;100544.19;5328389;28;20024;-83
2023/12/04 09:32:49;;;;;;;7.40;5.87;;;;;;;0.26;94.49;100542.69;5329727;28;20062;-82
2023/12/04 09:35:20;;;;;;;8.67;6.20;;;;;;;0.29;94.30;100547.91;5329086;28;20090;-82
2023/12/04 09:37:52;;;;;;;13.17;5.70;;;;;;;0.32;94.36;100547.97;5309023;28;20459;-81
2023/12/04 09:40:23;;;;;;;7.83;6.10;;;;;;;0.39;93.36;100540.41;5311158;28;20047;-81
2023/12/04 09:42:55;;;;;;;9.87;6.20;;;;;;;0.50;94.00;100547.56;5332876;28;20114;-82
2023/12/04 09:45:28;;;;;;;8.60;5.73;;;;;;;0.54;93.91;100543.38;5331574;28;20031;-81
2023/12/04 09:48:00;;;;;;;9.60;6.70;;;;;;;0.64;92.90;100541.88;5331194;28;20038;-80
2023/12/04 09:50:31;;;;;;;7.07;5.83;;;;;;;0.66;91.45;100545.34;5309839;28;20032;-84
2023/12/04 09:53:04;;;;;;;11.80;6.77;;;;;;;0.69;92.55;100542.84;5329262;28;20467;-83
2023/12/04 09:55:35;;;;;;;9.15;6.43;;;;;;;0.72;92.71;100545.50;5327500;28;20085;-83
2023/12/04 09:58:08;;;;;;;10.30;6.70;;;;;;;0.70;92.09;100540.31;5327696;28;20028;-83
2023/12/04 10:00:42;;;;;;;10.43;6.55;;;;;;;0.72;92.92;100535.22;5327147;28;20034;-80
2023/12/04 10:03:15;;;;;;;8.38;5.65;;;;;;;0.71;92.51;100534.38;5325785;28;20451;-80
2023/12/04 10:05:48;;;;;;;9.32;6.72;;;;;;;0.69;92.72;100533.47;5326373;28;20099;-80
2023/12/04 10:08:19;;;;;;;8.73;6.78;;;;;;;0.70;92.20;100536.91;5325865;28;20221;-81
2023/12/04 10:10:51;;;;;;;9.37;6.73;;;;;;;0.71;93.14;100523.25;5325847;28;20424;-81
2023/12/04 10:13:23;;;;;;;9.20;7.30;;;;;;;0.72;93.05;100522.41;5326398;28;20031;-81
2023/12/04 10:15:54;;;;;;;13.50;7.95;;;;;;;0.77;92.85;100519.94;5326575;28;20462;-79
2023/12/04 10:18:31;;;;;;;10.43;7.40;;;;;;;0.85;92.74;100520.97;5308206;28;20019;-80
2023/12/04 10:21:03;;;;;;;12.40;7.53;;;;;;;0.83;92.71;100517.53;5326400;28;20149;-82
2023/12/04 10:23:41;;;;;;;10.97;7.07;;;;;;;0.93;92.05;100511.75;5307819;28;20023;-83
2023/12/04 10:26:18;;;;;;;10.98;7.72;;;;;;;0.97;90.65;100505.88;5307877;28;20043;-81
2023/12/04 10:29:01;;;;;;;11.40;8.60;;;;;;;1.05;91.53;100503.47;5326937;28;20463;-82
2023/12/04 10:31:34;;;;;;;9.82;7.88;;;;;;;1.11;90.44;100492.44;5326943;28;20465;-79
2023/12/04 10:34:05;;;;;;;;;;;;;;;1.33;91.25;100486.06;5326249;28;20066;-82
2023/12/04 10:36:37;;;;;;;9.02;7.50;;;;;;;1.23;89.62;100485.00;5325691;28;20286;-77
2023/12/04 10:39:10;;;;;;;11.23;8.43;;;;;;;1.28;89.95;100486.81;5326987;28;20088;-84
2023/12/04 10:41:42;;;;;;;9.40;7.10;;;;;;;1.31;89.68;100470.63;5327473;28;20035;-83
2023/12/04 10:44:18;;;;;;;11.18;8.38;;;;;;;1.32;88.83;100469.81;5327906;28;20046;-83
2023/12/04 10:46:49;;;;;;;10.57;8.02;;;;;;;1.31;89.31;100472.34;5319589;28;20055;-84
2023/12/04 10:49:21;;;;;;;13.53;8.27;;;;;;;1.39;89.40;100461.38;5344925;28;20035;-82
2023/12/04 10:51:56;;;;;;;11.88;8.60;;;;;;;1.45;89.50;100458.06;5323231;28;20400;-83
2023/12/04 10:54:27;;;;;;;9.80;7.78;;;;;;;1.54;89.27;100447.09;5338904;28;20106;-81
2023/12/04 10:57:04;;;;;;;11.53;8.53;;;;;;;1.66;88.60;100446.44;5319348;28;20107;-81
2023/12/04 10:59:38;;;;;;;11.48;8.20;;;;;;;1.72;88.47;100444.81;5340879;28;20062;-81
2023/12/04 11:02:19;;;;;;;12.00;8.20;;;;;;;1.74;87.72;100435.47;5327884;28;20038;-82
2023/12/04 11:04:55;;;;;;;11.55;8.85;;;;;;;1.85;87.29;100430.50;5327450;28;20027;-82
2023/12/04 11:07:27;;;;;;;10.13;8.20;;;;;;;1.99;86.71;100425.59;5327464;28;20031;-82
2023/12/04 11:09:59;;;;;;;11.85;8.38;;;;;;;2.04;86.36;100415.38;5312398;28;20031;-82
2023/12/04 11:12:32;;;;;;;13.68;9.38;;;;;;;2.09;86.29;100414.59;5312590;28;20085;-82
2023/12/04 11:15:05;;;;;;;11.27;8.55;;;;;;;2.07;87.02;100424.00;5330438;28;20032;-83
2023/12/04 11:17:38;;;;;;;11.68;8.65;;;;;;;2.06;86.73;100416.25;5330397;28;20031;-82
2023/12/04 11:20:17;;;;;;;10.65;8.25;;;;;;;2.00;86.20;100411.91;5330201;28;20036;-82
2023/12/04 11:22:50;;;;;;;12.15;8.23;;;;;;;1.92;86.94;100406.63;5330445;28;20126;-82
2023/12/04 11:25:24;;;;;;;11.63;8.95;;;;;;;1.94;88.49;100406.66;5330398;28;20051;-82
2023/12/04 11:27:56;;;;;;;10.73;8.38;;;;;;;1.94;88.48;100407.50;5329850;28;20026;-82
2023/12/04 11:30:29;;;;;;;11.55;8.82;;;;;;;1.88;87.69;100402.28;5329676;28;20027;-81